Time;durP1;ratioP1;P1;durP2;ratioP2;P2;SDS_P1;SDS_P2;PMS_P1;PMS_P2;Temp;Humidity;BMP_temperature;BMP_pressure;BME280_temperature;BME280_humidity;BME280_pressure;Samples;Min_cycle;Max_cycle;Signal;HPM_P1;HPM_P2
2021/03/30 00:01:18;;;;;;;11.48;3.40;;;7.00;99.90;;;;;;5037162;28;20198;-84
2021/03/30 00:03:44;;;;;;;14.75;3.00;;;6.90;99.90;;;;;;5029838;28;20226;-84
2021/03/30 00:06:11;;;;;;;19.92;3.53;;;6.90;99.90;;;;;;5016622;28;20210;-84
2021/03/30 00:08:37;;;;;;;17.02;3.33;;;6.90;99.90;;;;;;5038951;28;20202;-85
2021/03/30 00:11:03;;;;;;;8.93;2.85;;;6.90;99.90;;;;;;5015193;28;20245;-84
2021/03/30 00:13:29;;;;;;;11.90;3.03;;;6.90;99.90;;;;;;5031505;28;20574;-84
2021/03/30 00:15:54;;;;;;;14.32;2.97;;;6.90;99.90;;;;;;5016242;28;20213;-85
2021/03/30 00:18:21;;;;;;;12.38;2.60;;;6.90;99.90;;;;;;5020331;28;20193;-84
2021/03/30 00:20:47;;;;;;;12.50;3.17;;;6.90;99.90;;;;;;5016851;28;20205;-85
2021/03/30 00:23:12;;;;;;;7.60;2.47;;;6.90;99.90;;;;;;5033285;28;20205;-84
2021/03/30 00:25:38;;;;;;;16.08;3.33;;;6.90;99.90;;;;;;5031346;28;20206;-85
2021/03/30 00:28:04;;;;;;;14.95;2.70;;;6.80;99.90;;;;;;5017163;28;20232;-84
2021/03/30 00:30:31;;;;;;;12.68;2.80;;;6.80;99.90;;;;;;5014330;28;20218;-85
2021/03/30 00:32:57;;;;;;;9.35;2.67;;;6.80;99.90;;;;;;5036008;28;20194;-84
2021/03/30 00:35:22;;;;;;;11.57;3.00;;;6.80;99.90;;;;;;5036835;28;20782;-84
2021/03/30 00:37:49;;;;;;;13.48;2.72;;;6.80;99.90;;;;;;5015492;28;20189;-84
2021/03/30 00:40:15;;;;;;;12.52;2.42;;;6.80;99.90;;;;;;5020257;28;20647;-84
2021/03/30 00:42:41;;;;;;;12.85;2.80;;;6.70;99.90;;;;;;5038220;28;20190;-84
2021/03/30 00:45:10;;;;;;;17.63;3.42;;;6.70;99.90;;;;;;5018371;28;20202;-84
2021/03/30 00:47:39;;;;;;;9.18;2.45;;;6.70;99.90;;;;;;5036275;28;20233;-85
2021/03/30 00:50:08;;;;;;;10.32;2.58;;;6.80;99.90;;;;;;5015529;28;20292;-85
2021/03/30 00:52:37;;;;;;;10.60;2.67;;;6.80;99.90;;;;;;5013898;28;20248;-84
2021/03/30 00:55:03;;;;;;;10.65;2.45;;;6.80;99.90;;;;;;5018062;28;20190;-85
2021/03/30 00:57:29;;;;;;;10.43;2.70;;;6.80;99.90;;;;;;5031977;28;20649;-84
2021/03/30 00:59:55;;;;;;;7.10;2.67;;;6.80;99.90;;;;;;5034470;28;20278;-85
2021/03/30 01:02:20;;;;;;;10.23;3.00;;;6.70;99.90;;;;;;5022095;23;20269;-74
2021/03/30 01:04:46;;;;;;;10.43;3.42;;;6.80;99.90;;;;;;5038040;28;20201;-74
2021/03/30 01:07:12;;;;;;;8.98;2.92;;;6.80;99.90;;;;;;5042543;28;20193;-74
2021/03/30 01:10:09;;;;;;;8.48;2.90;;;6.90;99.90;;;;;;5026354;28;20938;-75
2021/03/30 01:12:58;;;;;;;6.38;2.50;;;6.90;99.90;;;;;;5040388;28;20202;-74
2021/03/30 01:15:39;;;;;;;11.88;3.08;;;7.00;99.90;;;;;;5038483;28;20213;-75
2021/03/30 01:18:19;;;;;;;8.55;2.78;;;7.00;99.90;;;;;;5042328;28;20208;-74
2021/03/30 01:21:15;;;;;;;10.07;3.33;;;7.00;99.90;;;;;;5021672;28;20248;-74
2021/03/30 01:24:18;;;;;;;10.27;2.95;;;7.00;99.90;;;;;;5041003;28;20229;-75
2021/03/30 01:27:05;;;;;;;10.75;2.75;;;7.00;99.90;;;;;;5037413;28;20220;-74
2021/03/30 01:29:48;;;;;;;12.95;2.95;;;7.10;99.90;;;;;;5036726;28;20193;-75
2021/03/30 01:32:52;;;;;;;5.25;2.55;;;7.10;99.90;;;;;;5024380;28;20301;-74
2021/03/30 01:35:24;;;;;;;5.53;2.33;;;7.20;99.90;;;;;;5039760;28;20228;-74
2021/03/30 01:37:51;;;;;;;12.80;2.70;;;7.20;99.90;;;;;;5040807;28;20198;-74
2021/03/30 01:40:23;;;;;;;6.18;2.08;;;7.20;99.90;;;;;;5038044;28;20205;-74
2021/03/30 01:42:50;;;;;;;9.13;2.20;;;7.20;99.90;;;;;;5040587;28;20190;-74
2021/03/30 01:45:18;;;;;;;11.93;2.63;;;7.20;99.90;;;;;;5037328;28;20197;-74
2021/03/30 01:47:45;;;;;;;6.00;2.45;;;7.20;99.90;;;;;;5039075;28;20270;-74
2021/03/30 01:50:12;;;;;;;5.57;2.20;;;7.20;99.90;;;;;;5039520;28;20263;-74
2021/03/30 01:52:39;;;;;;;7.15;2.40;;;7.20;99.90;;;;;;5037816;28;20209;-74
2021/03/30 01:55:09;;;;;;;4.80;2.10;;;7.20;99.90;;;;;;5038542;28;20244;-74
2021/03/30 01:57:36;;;;;;;8.68;2.33;;;7.20;99.90;;;;;;5034214;28;20209;-74
2021/03/30 02:00:07;;;;;;;5.63;2.30;;;7.20;99.90;;;;;;5034114;28;20256;-74
2021/03/30 02:02:33;;;;;;;8.68;2.30;;;7.20;99.90;;;;;;5035031;28;20214;-74
2021/03/30 02:05:00;;;;;;;8.55;2.47;;;7.10;99.90;;;;;;5041502;28;20202;-74
2021/03/30 02:07:28;;;;;;;5.35;2.20;;;7.10;99.90;;;;;;5037858;28;20232;-74
2021/03/30 02:09:58;;;;;;;7.28;2.45;;;7.10;99.90;;;;;;5038712;28;20210;-74
2021/03/30 02:12:30;;;;;;;8.75;2.38;;;7.10;99.90;;;;;;5026113;28;20689;-74
2021/03/30 02:14:56;;;;;;;8.80;2.20;;;7.10;99.90;;;;;;5040218;28;20194;-74
2021/03/30 02:17:52;;;;;;;8.60;2.40;;;7.10;99.90;;;;;;5014392;28;20699;-74
2021/03/30 02:20:26;;;;;;;10.15;2.58;;;7.10;99.90;;;;;;5017549;28;20209;-74
2021/03/30 02:23:08;;;;;;;9.25;2.70;;;7.00;99.90;;;;;;5039809;28;20279;-75
2021/03/30 02:25:35;;;;;;;13.70;2.58;;;7.00;99.90;;;;;;5034429;28;20251;-74
2021/03/30 02:28:08;;;;;;;5.60;2.30;;;7.00;99.90;;;;;;5044517;28;20258;-74
2021/03/30 02:30:38;;;;;;;6.20;2.10;;;7.00;99.90;;;;;;5040433;28;20687;-74
2021/03/30 02:33:06;;;;;;;4.72;2.20;;;7.00;99.90;;;;;;5044030;28;20182;-74
2021/03/30 02:35:33;;;;;;;8.23;2.38;;;7.00;99.90;;;;;;5039877;28;20198;-75
2021/03/30 02:38:01;;;;;;;10.60;3.40;;;6.90;99.90;;;;;;5025038;28;20197;-74
2021/03/30 02:40:27;;;;;;;6.22;2.10;;;6.90;99.90;;;;;;5041588;28;20200;-74
2021/03/30 02:42:54;;;;;;;10.38;3.15;;;6.90;99.90;;;;;;5028368;28;20212;-74
2021/03/30 02:45:26;;;;;;;16.02;3.35;;;6.90;99.90;;;;;;5020565;28;20193;-74
2021/03/30 02:47:52;;;;;;;8.02;2.90;;;6.90;99.90;;;;;;5041583;28;20246;-74
2021/03/30 02:50:21;;;;;;;10.18;2.53;;;6.90;99.90;;;;;;5043565;28;20190;-74
2021/03/30 02:52:48;;;;;;;15.13;2.78;;;6.90;99.90;;;;;;5041173;28;20217;-74
2021/03/30 02:55:14;;;;;;;9.68;2.70;;;6.90;99.90;;;;;;5041324;28;20225;-74
2021/03/30 02:57:40;;;;;;;8.07;2.85;;;6.90;99.90;;;;;;5023975;28;22165;-74
2021/03/30 03:00:16;;;;;;;4.72;2.20;;;6.90;99.90;;;;;;5022958;28;20198;-74
2021/03/30 03:02:43;;;;;;;12.07;3.00;;;6.90;99.90;;;;;;5041818;28;20287;-74
2021/03/30 03:05:10;;;;;;;8.95;3.00;;;6.90;99.90;;;;;;5039804;28;20652;-74
2021/03/30 03:07:38;;;;;;;7.82;2.90;;;6.80;99.90;;;;;;5043721;28;20201;-74
2021/03/30 03:10:08;;;;;;;13.88;3.25;;;6.90;99.90;;;;;;5043183;28;20194;-74
2021/03/30 03:12:37;;;;;;;10.48;3.10;;;6.90;99.90;;;;;;5020363;28;20198;-74
2021/03/30 03:15:06;;;;;;;15.13;3.20;;;6.90;99.90;;;;;;5043476;28;20773;-74
2021/03/30 03:17:33;;;;;;;7.75;3.05;;;6.90;99.90;;;;;;5042310;28;20295;-74
2021/03/30 03:20:00;;;;;;;14.65;3.67;;;6.90;99.90;;;;;;5038852;28;20209;-74
2021/03/30 03:22:25;;;;;;;14.80;3.90;;;7.00;99.90;;;;;;5042164;28;20193;-75
2021/03/30 03:24:52;;;;;;;15.18;3.38;;;7.00;99.90;;;;;;5028051;28;20196;-74
2021/03/30 03:27:18;;;;;;;10.18;2.78;;;7.00;99.90;;;;;;5041013;28;20193;-74
2021/03/30 03:29:43;;;;;;;14.40;3.92;;;7.00;99.90;;;;;;5041698;28;20719;-74
2021/03/30 03:32:09;;;;;;;10.95;3.33;;;7.10;99.90;;;;;;5041250;28;20725;-74
2021/03/30 03:34:36;;;;;;;16.52;3.65;;;7.10;99.90;;;;;;5037771;28;21000;-74
2021/03/30 03:37:03;;;;;;;18.20;4.03;;;7.10;99.90;;;;;;5043153;28;20679;-74
2021/03/30 03:39:29;;;;;;;14.65;4.25;;;7.10;99.90;;;;;;5041765;28;20206;-74
2021/03/30 03:41:55;;;;;;;17.65;3.47;;;7.10;99.90;;;;;;5041279;28;20802;-74
2021/03/30 03:44:20;;;;;;;17.40;4.13;;;7.10;99.90;;;;;;5040952;28;20205;-74
2021/03/30 03:46:49;;;;;;;13.27;3.97;;;7.10;99.90;;;;;;5043137;28;20201;-74
2021/03/30 03:49:15;;;;;;;14.73;4.18;;;7.20;99.90;;;;;;5040568;28;20201;-73
2021/03/30 03:51:48;;;;;;;15.82;4.43;;;7.20;99.90;;;;;;5040472;28;20221;-73
2021/03/30 03:54:17;;;;;;;15.55;3.47;;;7.20;99.90;;;;;;5026480;28;20212;-73
2021/03/30 03:56:50;;;;;;;18.50;3.75;;;7.30;99.90;;;;;;5038309;28;20258;-74
2021/03/30 03:59:26;;;;;;;13.05;3.60;;;7.30;99.90;;;;;;5040756;28;20193;-74
2021/03/30 04:01:58;;;;;;;13.60;3.70;;;7.30;99.90;;;;;;5045673;28;20228;-74
2021/03/30 04:04:47;;;;;;;13.82;4.05;;;7.30;99.90;;;;;;5040454;28;20197;-73
2021/03/30 04:07:19;;;;;;;8.82;3.47;;;7.30;99.90;;;;;;5041820;28;20223;-74
2021/03/30 04:09:49;;;;;;;16.30;3.90;;;7.30;99.90;;;;;;5036360;28;20214;-74
2021/03/30 04:12:18;;;;;;;10.75;3.63;;;7.30;99.90;;;;;;5022046;28;20599;-74
2021/03/30 04:14:44;;;;;;;12.82;3.45;;;7.40;99.90;;;;;;5039796;28;20240;-75
2021/03/30 04:17:14;;;;;;;9.65;3.30;;;7.40;99.90;;;;;;5024080;28;20260;-75
2021/03/30 04:19:40;;;;;;;21.00;3.10;;;7.40;99.90;;;;;;5020880;28;20224;-74
2021/03/30 04:22:06;;;;;;;6.50;2.88;;;7.50;99.90;;;;;;5037642;28;20695;-74
2021/03/30 04:24:32;;;;;;;10.63;3.00;;;7.50;99.90;;;;;;5038107;28;20198;-72
2021/03/30 04:26:58;;;;;;;7.80;2.97;;;7.50;99.90;;;;;;5039823;28;20198;-72
2021/03/30 04:29:23;;;;;;;9.30;2.80;;;7.50;99.90;;;;;;5040965;28;20201;-73
2021/03/30 04:31:49;;;;;;;10.68;3.17;;;7.50;99.90;;;;;;5023227;28;20204;-74
2021/03/30 04:34:14;;;;;;;9.20;3.03;;;7.60;99.90;;;;;;5040037;28;20217;-72
2021/03/30 04:36:40;;;;;;;11.63;2.90;;;7.60;99.90;;;;;;5038035;28;20549;-72
2021/03/30 04:39:06;;;;;;;7.43;2.60;;;7.60;99.90;;;;;;5041322;28;20190;-73
2021/03/30 04:41:32;;;;;;;12.68;2.60;;;7.60;99.90;;;;;;5039560;28;20731;-74
2021/03/30 04:43:57;;;;;;;9.38;2.67;;;7.60;99.90;;;;;;5035662;28;20207;-75
2021/03/30 04:46:23;;;;;;;6.93;2.50;;;7.60;99.90;;;;;;5040824;28;20194;-74
2021/03/30 04:48:49;;;;;;;10.80;2.60;;;7.50;99.90;;;;;;5039201;28;20228;-73
2021/03/30 04:51:14;;;;;;;10.43;3.08;;;7.60;99.90;;;;;;5041478;28;20213;-75
2021/03/30 04:53:40;;;;;;;12.93;3.05;;;7.50;99.90;;;;;;5026543;28;20212;-75
2021/03/30 04:56:06;;;;;;;12.02;3.40;;;7.50;99.90;;;;;;5045588;28;20201;-74
2021/03/30 04:58:32;;;;;;;9.20;2.97;;;7.60;99.90;;;;;;5043156;28;20243;-73
2021/03/30 05:00:57;;;;;;;9.77;2.80;;;7.60;99.90;;;;;;5043286;28;20200;-71
2021/03/30 05:03:23;;;;;;;6.63;2.92;;;7.60;99.90;;;;;;5044664;28;20304;-74
2021/03/30 05:05:49;;;;;;;8.63;2.72;;;7.50;99.90;;;;;;5038896;28;20869;-74
2021/03/30 05:08:15;;;;;;;8.57;2.97;;;7.50;99.90;;;;;;5043152;28;20735;-73
2021/03/30 05:10:40;;;;;;;11.10;2.40;;;7.50;99.90;;;;;;5041742;28;20193;-74
2021/03/30 05:13:06;;;;;;;12.88;2.80;;;7.50;99.90;;;;;;5035971;28;20269;-74
2021/03/30 05:15:32;;;;;;;10.75;2.78;;;7.50;99.90;;;;;;5020979;28;20300;-74
2021/03/30 05:17:57;;;;;;;10.60;2.67;;;7.50;99.90;;;;;;5037372;28;20202;-74
2021/03/30 05:20:23;;;;;;;10.15;2.45;;;7.50;99.90;;;;;;5045239;28;20201;-74
2021/03/30 05:22:49;;;;;;;7.88;2.40;;;7.50;99.90;;;;;;5043742;28;20323;-73
2021/03/30 05:25:15;;;;;;;7.32;2.38;;;7.50;99.90;;;;;;5040407;28;20598;-74
2021/03/30 05:27:41;;;;;;;12.02;2.85;;;7.50;99.90;;;;;;5024266;28;20218;-75
2021/03/30 05:30:11;;;;;;;6.75;2.35;;;7.50;99.90;;;;;;5024679;28;20195;-74
2021/03/30 05:32:37;;;;;;;7.57;2.30;;;7.50;99.90;;;;;;5041178;28;20209;-74
2021/03/30 05:35:06;;;;;;;10.20;2.28;;;7.60;99.90;;;;;;5037102;28;20194;-74
2021/03/30 05:37:32;;;;;;;9.32;2.35;;;7.60;99.90;;;;;;5017113;28;20209;-74
2021/03/30 05:39:57;;;;;;;7.05;2.55;;;7.60;99.90;;;;;;5036972;28;20189;-74
2021/03/30 05:42:23;;;;;;;4.68;2.17;;;7.70;99.90;;;;;;5039019;28;20300;-74
2021/03/30 05:44:52;;;;;;;10.75;2.95;;;7.70;99.90;;;;;;5026235;28;20194;-75
2021/03/30 05:47:20;;;;;;;5.55;2.33;;;7.60;99.90;;;;;;5046671;28;20220;-74
2021/03/30 05:49:49;;;;;;;7.25;2.30;;;7.60;99.90;;;;;;5033488;28;20626;-75
2021/03/30 05:52:26;;;;;;;7.10;2.60;;;7.60;99.90;;;;;;5037724;28;20209;-74
2021/03/30 05:54:54;;;;;;;13.15;2.60;;;7.60;99.90;;;;;;5032182;28;20224;-74
2021/03/30 05:57:28;;;;;;;6.45;2.45;;;7.70;99.90;;;;;;5017362;28;20633;-73
2021/03/30 05:59:58;;;;;;;11.85;2.60;;;7.70;99.90;;;;;;5023801;28;20698;-73
2021/03/30 06:02:39;;;;;;;5.32;2.38;;;7.70;99.90;;;;;;5030230;28;20215;-75
2021/03/30 06:05:07;;;;;;;7.15;2.17;;;7.80;99.90;;;;;;5017787;28;20185;-74
2021/03/30 06:07:36;;;;;;;8.57;2.50;;;7.80;99.90;;;;;;5017867;28;20198;-73
2021/03/30 06:10:04;;;;;;;9.23;2.22;;;7.80;99.90;;;;;;5020170;28;20538;-73
2021/03/30 06:12:30;;;;;;;7.68;2.38;;;7.90;99.90;;;;;;5019250;28;20202;-73
2021/03/30 06:15:01;;;;;;;5.90;2.13;;;7.90;99.90;;;;;;5022655;28;20194;-73
2021/03/30 06:17:27;;;;;;;5.10;2.10;;;8.00;99.90;;;;;;5016250;28;20210;-73
2021/03/30 06:19:57;;;;;;;6.90;2.15;;;8.00;99.90;;;;;;5015867;28;20998;-73
2021/03/30 06:22:24;;;;;;;7.30;2.03;;;8.00;99.90;;;;;;5020159;28;20194;-75
2021/03/30 06:24:54;;;;;;;4.25;2.05;;;8.10;99.90;;;;;;5021696;28;20195;-73
2021/03/30 06:27:25;;;;;;;6.53;2.22;;;8.20;99.90;;;;;;5020305;28;20194;-74
2021/03/30 06:29:53;;;;;;;7.68;2.42;;;8.20;99.90;;;;;;5018343;28;20226;-74
2021/03/30 06:32:21;;;;;;;5.53;2.20;;;8.30;99.90;;;;;;5022748;28;20202;-74
2021/03/30 06:34:50;;;;;;;5.43;2.00;;;8.30;99.90;;;;;;5018512;28;20344;-74
2021/03/30 06:37:28;;;;;;;5.95;2.45;;;8.30;99.90;;;;;;5022359;28;20309;-73
2021/03/30 06:40:09;;;;;;;4.93;1.92;;;8.30;99.90;;;;;;5022106;28;20194;-73
2021/03/30 06:43:11;;;;;;;6.20;2.10;;;8.40;99.90;;;;;;4997315;28;20203;-73
2021/03/30 06:45:28;;;;;;;7.30;2.35;;;8.50;99.90;;;;;;5014895;28;20229;-73
2021/03/30 06:47:57;;;;;;;6.65;2.03;;;8.50;99.90;;;;;;5015988;28;20281;-74
2021/03/30 06:50:29;;;;;;;5.78;2.00;;;8.60;99.90;;;;;;5020384;28;20194;-73
2021/03/30 06:53:08;;;;;;;11.57;2.00;;;8.70;99.90;;;;;;5018328;28;20198;-73
2021/03/30 06:55:34;;;;;;;5.75;1.90;;;8.90;99.90;;;;;;5020792;28;20198;-73
2021/03/30 06:58:02;;;;;;;3.17;1.50;;;9.00;99.90;;;;;;5022547;28;20274;-73
2021/03/30 07:00:37;;;;;;;7.53;2.20;;;9.10;99.90;;;;;;5001719;28;20198;-73
2021/03/30 07:03:11;;;;;;;7.07;2.33;;;9.20;99.90;;;;;;5029186;28;20209;-73
2021/03/30 07:05:37;;;;;;;7.00;2.28;;;9.30;99.90;;;;;;5038547;28;20682;-73
2021/03/30 07:08:12;;;;;;;4.43;1.75;;;9.40;99.90;;;;;;5042836;28;20186;-73
2021/03/30 07:10:43;;;;;;;2.38;1.50;;;9.50;99.90;;;;;;5036958;28;20204;-74
2021/03/30 07:13:10;;;;;;;4.68;1.60;;;9.70;99.90;;;;;;5039023;28;20197;-73
2021/03/30 07:15:36;;;;;;;2.30;1.30;;;9.80;99.90;;;;;;5033690;28;20209;-73
2021/03/30 07:18:07;;;;;;;3.38;1.63;;;9.80;99.90;;;;;;5021936;28;20275;-73
2021/03/30 07:20:57;;;;;;;4.25;1.38;;;10.00;99.90;;;;;;5040102;28;20886;-74
2021/03/30 07:23:29;;;;;;;5.50;1.50;;;10.20;99.90;;;;;;5037495;28;20213;-74
2021/03/30 07:26:00;;;;;;;4.93;1.55;;;10.30;99.90;;;;;;5038857;28;20293;-73
2021/03/30 07:28:32;;;;;;;2.97;1.20;;;10.30;99.90;;;;;;5039993;28;20189;-73
2021/03/30 07:31:05;;;;;;;5.28;1.10;;;10.40;99.90;;;;;;5024333;28;20660;-74
2021/03/30 07:34:00;;;;;;;5.90;1.60;;;10.40;99.90;;;;;;5041913;28;20300;-74
2021/03/30 07:36:28;;;;;;;3.60;1.40;;;10.40;99.90;;;;;;5024516;28;20228;-73
2021/03/30 07:39:00;;;;;;;2.58;1.40;;;10.50;99.90;;;;;;5025938;28;20519;-73
2021/03/30 07:41:26;;;;;;;3.00;1.30;;;10.60;99.90;;;;;;5039840;28;20272;-73
2021/03/30 07:43:58;;;;;;;3.28;1.30;;;10.50;99.90;;;;;;5041354;28;20240;-73
2021/03/30 07:46:24;;;;;;;4.07;1.35;;;10.60;99.90;;;;;;5042886;28;20209;-73
2021/03/30 07:48:50;;;;;;;3.33;1.17;;;10.50;99.90;;;;;;5036152;28;20741;-72
2021/03/30 07:51:24;;;;;;;4.15;1.20;;;10.60;99.90;;;;;;5039066;28;20284;-74
2021/03/30 07:53:55;;;;;;;4.40;1.27;;;10.70;99.90;;;;;;5037436;28;20367;-74
2021/03/30 07:56:23;;;;;;;3.58;1.60;;;10.70;99.90;;;;;;5040251;28;20201;-74
2021/03/30 07:58:50;;;;;;;3.80;1.40;;;10.70;99.90;;;;;;5023676;28;20189;-73
2021/03/30 08:01:19;;;;;;;4.35;1.40;;;10.70;99.90;;;;;;5037709;28;20227;-72
2021/03/30 08:03:46;;;;;;;4.25;1.48;;;10.80;99.90;;;;;;5038822;28;20804;-73
2021/03/30 08:06:27;;;;;;;4.32;1.30;;;10.90;99.90;;;;;;5022326;28;20233;-73
2021/03/30 08:09:00;;;;;;;3.95;1.65;;;10.80;99.90;;;;;;5035736;28;20202;-74
2021/03/30 08:11:41;;;;;;;7.03;1.42;;;10.90;99.90;;;;;;5037829;28;20216;-73
2021/03/30 08:14:08;;;;;;;4.43;1.70;;;10.90;99.90;;;;;;5042489;28;20649;-73
2021/03/30 08:16:37;;;;;;;3.03;1.40;;;11.00;99.90;;;;;;5034107;28;20210;-73
2021/03/30 08:19:08;;;;;;;5.45;1.38;;;11.20;99.90;;;;;;5022561;28;20287;-73
2021/03/30 08:21:53;;;;;;;3.58;1.50;;;11.30;99.90;;;;;;5038989;28;20205;-73
2021/03/30 08:24:20;;;;;;;3.38;1.48;;;11.30;99.90;;;;;;5040391;28;20189;-74
2021/03/30 08:26:46;;;;;;;4.25;1.27;;;11.30;99.90;;;;;;5035702;28;20210;-73
2021/03/30 08:29:24;;;;;;;7.00;1.75;;;11.40;99.90;;;;;;5034438;28;20796;-73
2021/03/30 08:31:53;;;;;;;8.20;1.52;;;11.50;99.90;;;;;;5039494;28;20220;-73
2021/03/30 08:34:23;;;;;;;2.25;1.38;;;11.60;99.90;;;;;;5040225;28;20225;-73
2021/03/30 08:36:58;;;;;;;5.32;1.40;;;11.70;99.90;;;;;;5037106;28;20243;-73
2021/03/30 08:39:24;;;;;;;5.60;1.50;;;11.70;99.90;;;;;;5017673;28;20201;-73
2021/03/30 08:41:52;;;;;;;2.10;1.50;;;11.70;99.90;;;;;;5022359;28;20690;-73
2021/03/30 08:44:32;;;;;;;6.93;1.80;;;11.70;99.90;;;;;;5041376;28;20653;-73
2021/03/30 08:46:59;;;;;;;6.15;1.55;;;11.90;99.90;;;;;;5039656;28;20193;-74
2021/03/30 08:49:26;;;;;;;3.38;1.55;;;12.20;99.90;;;;;;5044984;28;20220;-73
2021/03/30 08:51:56;;;;;;;9.13;1.58;;;12.20;99.90;;;;;;5040029;28;20197;-74
2021/03/30 08:54:53;;;;;;;3.33;1.25;;;12.20;99.90;;;;;;5032038;28;20263;-74
2021/03/30 08:57:33;;;;;;;4.50;1.50;;;12.40;99.90;;;;;;5021315;28;20249;-74
2021/03/30 09:00:01;;;;;;;4.93;1.60;;;12.60;99.90;;;;;;5038685;28;20208;-74
2021/03/30 09:02:28;;;;;;;3.28;1.38;;;12.80;99.90;;;;;;5032577;28;20225;-75
2021/03/30 09:04:55;;;;;;;4.55;1.52;;;13.00;99.90;;;;;;5036739;28;20729;-74
2021/03/30 09:07:22;;;;;;;4.85;1.40;;;13.10;99.90;;;;;;5016603;28;20201;-73
2021/03/30 09:09:48;;;;;;;7.55;1.67;;;13.10;99.90;;;;;;5037362;28;20200;-74
2021/03/30 09:12:16;;;;;;;4.32;1.50;;;13.20;99.90;;;;;;5033666;28;20281;-75
2021/03/30 09:14:45;;;;;;;3.60;1.35;;;13.40;99.90;;;;;;5035659;28;20197;-74
2021/03/30 09:17:13;;;;;;;4.10;1.42;;;13.60;99.90;;;;;;5017401;28;20714;-76
2021/03/30 09:19:43;;;;;;;3.72;1.40;;;13.70;99.90;;;;;;5039476;28;20655;-74
2021/03/30 09:25:06;;;;;;;5.70;1.38;;;14.00;99.90;;;;;;5036079;28;20205;-75
2021/03/30 09:27:35;;;;;;;4.28;1.50;;;14.20;99.90;;;;;;5038793;28;21498;-75
2021/03/30 09:30:06;;;;;;;3.33;1.30;;;14.20;99.90;;;;;;5032750;28;20194;-75
2021/03/30 09:32:33;;;;;;;4.68;1.30;;;14.30;99.90;;;;;;5018514;28;20286;-74
2021/03/30 09:35:23;;;;;;;4.75;1.63;;;14.50;99.90;;;;;;5041151;28;20606;-74
2021/03/30 09:37:57;;;;;;;2.22;1.20;;;14.40;99.90;;;;;;5028133;28;20306;-74
2021/03/30 09:40:26;;;;;;;5.32;1.80;;;14.60;99.90;;;;;;5037825;28;20228;-74
2021/03/30 09:42:52;;;;;;;3.13;1.40;;;14.80;99.90;;;;;;5038748;28;20206;-75
2021/03/30 09:45:25;;;;;;;5.43;1.30;;;15.10;99.90;;;;;;5039957;28;20246;-74
2021/03/30 09:47:51;;;;;;;2.13;1.00;;;15.50;99.90;;;;;;5038473;28;20326;-75
2021/03/30 09:50:20;;;;;;;4.18;1.88;;;15.70;99.90;;;;;;5035286;28;20211;-73
2021/03/30 09:52:46;;;;;;;3.38;1.40;;;15.90;99.90;;;;;;5035259;28;20650;-74
2021/03/30 09:55:12;;;;;;;3.50;1.30;;;16.00;99.90;;;;;;5036146;28;20208;-73
2021/03/30 09:57:37;;;;;;;3.05;1.45;;;16.00;99.90;;;;;;5036561;28;20654;-74
2021/03/30 10:00:04;;;;;;;7.53;1.70;;;16.30;99.90;;;;;;5037733;28;20208;-74
2021/03/30 10:02:37;;;;;;;7.00;1.65;;;16.50;99.90;;;;;;5030484;28;20279;-74
2021/03/30 10:05:07;;;;;;;3.95;1.33;;;16.60;99.90;;;;;;5018697;28;20288;-74
2021/03/30 10:07:38;;;;;;;4.15;1.75;;;16.60;99.90;;;;;;5017873;28;20229;-74
2021/03/30 10:10:09;;;;;;;5.95;1.33;;;16.90;99.90;;;;;;5019495;28;20725;-75
2021/03/30 10:12:50;;;;;;;4.95;1.25;;;17.00;99.90;;;;;;5000629;28;20245;-75
2021/03/30 10:15:16;;;;;;;4.70;1.60;;;17.20;99.90;;;;;;5019128;28;20204;-75
2021/03/30 10:17:42;;;;;;;7.68;1.50;;;17.40;99.90;;;;;;5019131;28;20214;-76
2021/03/30 10:20:12;;;;;;;3.28;0.95;;;17.40;99.90;;;;;;5016471;28;20731;-75
2021/03/30 10:22:47;;;;;;;4.40;1.40;;;16.90;99.90;;;;;;5016482;28;20227;-75
2021/03/30 10:25:31;;;;;;;6.85;1.75;;;17.10;99.90;;;;;;5016843;28;20200;-75
2021/03/30 10:27:59;;;;;;;3.80;1.35;;;17.60;99.90;;;;;;5019236;28;20285;-75
2021/03/30 10:30:35;;;;;;;2.42;1.20;;;17.60;99.90;;;;;;4997061;28;20260;-75
2021/03/30 10:33:06;;;;;;;3.72;1.48;;;17.70;99.90;;;;;;5008078;28;20212;-75
2021/03/30 10:35:33;;;;;;;2.15;1.13;;;17.70;99.90;;;;;;5016944;28;20199;-76
2021/03/30 10:37:59;;;;;;;3.67;1.27;;;17.70;99.90;;;;;;5017037;28;20291;-76
2021/03/30 10:40:39;;;;;;;2.25;1.08;;;17.80;99.90;;;;;;5018118;28;20194;-75
2021/03/30 10:43:25;;;;;;;2.35;1.20;;;18.00;99.90;;;;;;5013393;28;21044;-76
2021/03/30 10:45:52;;;;;;;2.92;1.00;;;17.70;99.90;;;;;;5018974;28;20555;-75
2021/03/30 10:48:19;;;;;;;4.38;1.02;;;18.00;99.90;;;;;;5020268;28;20201;-75
2021/03/30 10:50:45;;;;;;;5.70;1.00;;;18.60;99.90;;;;;;5017339;28;20694;-76
2021/03/30 10:53:11;;;;;;;3.90;1.40;;;18.70;99.90;;;;;;5019055;28;20202;-73
2021/03/30 10:55:39;;;;;;;5.40;1.38;;;18.90;99.90;;;;;;5019821;28;20202;-71
2021/03/30 10:58:11;;;;;;;2.50;0.95;;;19.30;99.90;;;;;;5018334;28;20202;-71
2021/03/30 11:00:41;;;;;;;4.15;1.27;;;19.10;99.90;;;;;;5023396;28;20778;-70
2021/03/30 11:03:07;;;;;;;2.85;1.10;;;19.60;99.90;;;;;;5029462;28;20252;-75
2021/03/30 11:05:37;;;;;;;2.83;1.00;;;19.60;99.90;;;;;;5037176;28;20284;-74
2021/03/30 11:08:03;;;;;;;3.28;1.20;;;19.60;99.90;;;;;;5035653;28;20247;-72
2021/03/30 11:10:31;;;;;;;2.03;0.90;;;19.80;99.90;;;;;;5043711;28;21061;-72
2021/03/30 11:12:57;;;;;;;6.13;0.95;;;20.20;99.90;;;;;;5040543;28;20292;-74
2021/03/30 11:15:23;;;;;;;2.72;0.93;;;20.40;99.90;;;;;;5036869;28;21079;-73
2021/03/30 11:17:48;;;;;;;3.45;0.82;;;20.30;99.80;;;;;;5039242;28;20283;-71
2021/03/30 11:20:15;;;;;;;2.78;1.05;;;20.60;99.70;;;;;;5040115;28;20194;-72
2021/03/30 11:22:43;;;;;;;2.63;0.90;;;20.90;99.10;;;;;;5040189;28;20870;-71
2021/03/30 11:25:11;;;;;;;2.53;0.90;;;20.80;97.40;;;;;;5038903;28;20190;-71
2021/03/30 11:27:38;;;;;;;3.05;1.00;;;20.70;97.40;;;;;;5040780;28;20211;-72
2021/03/30 11:30:11;;;;;;;4.40;1.02;;;20.40;98.50;;;;;;5034067;28;20197;-71
2021/03/30 11:35:52;;;;;;;3.42;1.00;;;20.10;97.90;;;;;;4974725;28;20236;-73
2021/03/30 11:38:18;;;;;;;2.60;0.95;;;19.80;97.60;;;;;;4977724;28;20221;-75
2021/03/30 11:40:44;;;;;;;8.13;1.10;;;19.90;97.60;;;;;;4976006;28;20698;-75
2021/03/30 11:43:10;;;;;;;4.45;1.15;;;19.90;99.80;;;;;;4959322;28;20204;-74
2021/03/30 11:45:36;;;;;;;4.68;1.30;;;20.20;97.90;;;;;;4980745;28;20752;-75
2021/03/30 11:48:02;;;;;;;3.55;0.90;;;19.90;96.60;;;;;;4976347;28;20207;-75
2021/03/30 11:50:29;;;;;;;4.55;1.17;;;19.90;98.10;;;;;;4976504;28;20234;-75
2021/03/30 11:52:55;;;;;;;2.78;1.10;;;19.90;97.70;;;;;;4974353;28;20212;-74
2021/03/30 11:55:21;;;;;;;5.68;1.80;;;19.90;97.50;;;;;;4969469;28;20323;-77
2021/03/30 11:57:48;;;;;;;4.82;1.00;;;19.90;97.40;;;;;;4976290;28;20683;-75
2021/03/30 12:00:15;;;;;;;3.78;1.42;;;20.00;96.90;;;;;;4978929;28;20327;-75
2021/03/30 12:02:41;;;;;;;3.80;1.35;;;19.80;96.80;;;;;;4975955;28;20327;-76
2021/03/30 12:05:07;;;;;;;5.22;1.20;;;20.20;97.30;;;;;;4973068;28;20199;-76
2021/03/30 12:07:33;;;;;;;4.40;1.33;;;20.30;97.00;;;;;;5015310;28;20617;-76
2021/03/30 12:09:59;;;;;;;5.07;1.60;;;20.40;95.10;;;;;;5039064;28;20193;-76
2021/03/30 12:12:25;;;;;;;3.35;1.25;;;20.20;95.90;;;;;;5022936;28;20216;-76
2021/03/30 12:14:50;;;;;;;4.13;1.20;;;20.30;96.60;;;;;;5036141;28;20746;-76
2021/03/30 12:17:16;;;;;;;4.93;1.40;;;20.30;95.50;;;;;;5023070;28;20690;-76
2021/03/30 12:19:42;;;;;;;5.30;1.23;;;20.50;95.50;;;;;;5038816;28;20202;-75
2021/03/30 12:22:08;;;;;;;6.13;1.38;;;20.30;95.60;;;;;;5039107;28;20201;-75
2021/03/30 12:24:33;;;;;;;5.72;1.73;;;20.60;96.00;;;;;;5034725;28;20221;-75
2021/03/30 12:26:59;;;;;;;6.03;1.33;;;20.20;95.40;;;;;;5038355;28;20209;-76
2021/03/30 12:29:25;;;;;;;3.95;1.17;;;20.30;95.10;;;;;;5040848;28;20234;-75
2021/03/30 12:31:51;;;;;;;8.25;1.55;;;20.40;94.50;;;;;;5040541;28;20201;-75
2021/03/30 12:34:16;;;;;;;5.70;1.67;;;20.50;95.40;;;;;;5038976;28;20193;-75
2021/03/30 12:36:42;;;;;;;6.90;1.90;;;20.80;94.00;;;;;;5040396;28;20203;-75
2021/03/30 12:39:10;;;;;;;7.90;1.80;;;20.70;94.10;;;;;;5041341;28;20740;-76
2021/03/30 12:41:36;;;;;;;6.43;1.50;;;20.60;94.90;;;;;;5034632;28;20660;-75
2021/03/30 12:44:02;;;;;;;6.75;1.75;;;20.40;94.20;;;;;;5042657;28;20266;-75
2021/03/30 12:46:28;;;;;;;6.95;1.60;;;20.40;95.40;;;;;;5039039;28;21038;-75
2021/03/30 12:48:54;;;;;;;5.80;1.65;;;20.70;94.50;;;;;;5022867;28;20250;-75
2021/03/30 12:51:19;;;;;;;8.07;1.60;;;20.90;94.10;;;;;;5040474;28;20209;-75
2021/03/30 12:53:45;;;;;;;9.68;1.88;;;20.40;93.70;;;;;;5038138;28;20208;-76
2021/03/30 12:56:11;;;;;;;7.22;1.70;;;20.50;94.60;;;;;;5036970;28;20198;-77
2021/03/30 12:58:37;;;;;;;5.97;1.52;;;20.40;94.70;;;;;;5018222;28;20201;-76
2021/03/30 13:01:02;;;;;;;10.32;1.90;;;20.70;95.10;;;;;;5036307;28;20194;-76
2021/03/30 13:03:28;;;;;;;8.07;1.90;;;20.50;93.50;;;;;;5038160;28;20296;-75
2021/03/30 13:05:54;;;;;;;8.18;1.95;;;20.20;95.70;;;;;;5021986;28;20288;-75
2021/03/30 13:08:20;;;;;;;7.07;1.40;;;19.80;94.60;;;;;;5017466;28;20225;-75